Time,TemperatureF,DewpointF,PressureIn,WindDirection,WindDirectionDegrees,WindSpeedMPH,WindSpeedGustMPH,Humidity,HourlyPrecipIn,Conditions,Clouds,dailyrainin,SoftwareType,DateUTC
2013-02-27 06:00:00,34.3,-4.8,30.04,NNW,338,6.0,14.0,18,0.00,,---,0.00,VWS V14.00,2013-02-27 12:00:00,
2013-02-27 06:44:00,32.5,0.6,30.10,North,359,3.0,6.0,25,0.00,,---,0.00,VWS V14.00,2013-02-27 12:44:00,
2013-02-27 06:49:00,32.5,2.2,30.10,NNW,332,2.0,7.0,27,0.00,,---,0.00,VWS V14.00,2013-02-27 12:49:00,
2013-02-27 06:50:00,32.4,2.2,30.10,NNW,332,4.0,7.0,27,0.00,,---,0.00,VWS V14.00,2013-02-27 12:50:00,
2013-02-27 06:54:00,32.2,2.8,30.10,NNW,333,2.0,10.0,28,0.00,,---,0.00,VWS V14.00,2013-02-27 12:54:00,
2013-02-27 06:55:00,32.2,3.5,30.10,NNW,333,3.0,10.0,29,0.00,,---,0.00,VWS V14.00,2013-02-27 12:55:00,
2013-02-27 06:59:00,31.8,3.2,30.11,NNW,333,0.0,10.0,29,0.00,,---,0.00,VWS V14.00,2013-02-27 12:59:00,
2013-02-27 07:00:00,31.6,3.0,30.11,NNW,333,0.0,0.0,29,0.00,,---,0.00,VWS V14.00,2013-02-27 13:00:00,
2013-02-27 07:04:00,31.8,4.6,30.11,NW,326,5.0,10.0,31,0.00,,---,0.00,VWS V14.00,2013-02-27 13:04:00,
2013-02-27 07:05:00,31.8,6.0,30.11,NW,326,5.0,10.0,33,0.00,,---,0.00,VWS V14.00,2013-02-27 13:05:00,
2013-02-27 07:09:00,31.6,5.1,30.11,NNW,328,5.0,10.0,32,0.00,,---,0.00,VWS V14.00,2013-02-27 13:09:00,
2013-02-27 07:10:00,31.6,5.1,30.11,NW,326,4.0,10.0,32,0.00,,---,0.00,VWS V14.00,2013-02-27 13:10:00,
2013-02-27 07:15:00,31.6,5.8,30.16,NW,326,3.0,10.0,33,0.00,,---,0.00,VWS V14.00,2013-02-27 13:15:00,
2013-02-27 07:20:00,31.3,6.2,30.16,NW,326,2.0,10.0,34,0.00,,---,0.00,VWS V14.00,2013-02-27 13:20:00,
2013-02-27 07:21:00,31.2,6.1,30.16,NW,326,0.0,10.0,34,0.00,,---,0.00,VWS V14.00,2013-02-27 13:21:00,
2013-02-27 07:25:00,30.7,5.7,30.16,NW,326,3.0,10.0,34,0.00,,---,0.00,VWS V14.00,2013-02-27 13:25:00,
2013-02-27 07:26:00,30.6,6.2,30.16,NW,326,2.0,10.0,35,0.00,,---,0.00,VWS V14.00,2013-02-27 13:26:00,
2013-02-27 07:30:00,30.3,8.3,30.17,NW,323,2.0,5.0,39,0.00,,---,0.00,VWS V14.00,2013-02-27 13:30:00,
2013-02-27 07:31:00,30.3,8.3,30.17,NW,322,4.0,5.0,39,0.00,,---,0.00,VWS V14.00,2013-02-27 13:31:00,
2013-02-27 07:35:00,30.6,12.3,30.17,NNW,329,7.0,10.0,46,0.00,,---,0.00,VWS V14.00,2013-02-27 13:35:00,
2013-02-27 07:36:00,30.6,12.3,30.17,NW,325,6.0,10.0,46,0.00,,---,0.00,VWS V14.00,2013-02-27 13:36:00,
2013-02-27 07:40:00,30.9,12.1,30.17,NNW,344,4.0,10.0,45,0.00,,---,0.00,VWS V14.00,2013-02-27 13:40:00,
2013-02-27 07:41:00,30.9,12.1,30.17,NNW,344,2.0,10.0,45,0.00,,---,0.00,VWS V14.00,2013-02-27 13:41:00,
2013-02-27 07:45:00,30.6,11.8,30.18,NNW,344,1.0,10.0,45,0.00,,---,0.00,VWS V14.00,2013-02-27 13:45:00,
2013-02-27 07:46:00,30.6,11.8,30.18,NNW,344,2.0,10.0,45,0.00,,---,0.00,VWS V14.00,2013-02-27 13:46:00,
2013-02-27 07:50:00,30.4,13.1,30.18,North,352,3.0,10.0,48,0.00,,---,0.00,VWS V14.00,2013-02-27 13:50:00,
2013-02-27 07:51:00,30.4,12.6,30.18,North,352,2.0,10.0,47,0.00,,---,0.00,VWS V14.00,2013-02-27 13:51:00,
2013-02-27 07:55:00,30.6,13.3,30.18,North,352,1.0,10.0,48,0.00,,---,0.00,VWS V14.00,2013-02-27 13:55:00,
2013-02-27 07:56:00,30.6,13.3,30.18,North,352,0.0,10.0,48,0.00,,---,0.00,VWS V14.00,2013-02-27 13:56:00,
2013-02-27 07:57:00,30.6,13.3,30.18,North,352,1.0,10.0,48,0.00,,---,0.00,VWS V14.00,2013-02-27 13:57:00,
2013-02-27 08:00:00,30.6,14.2,30.19,North,352,1.0,3.0,50,0.00,,---,0.00,VWS V14.00,2013-02-27 14:00:00,
2013-02-27 08:01:00,30.6,13.7,30.19,North,352,2.0,3.0,49,0.00,,---,0.00,VWS V14.00,2013-02-27 14:01:00,
2013-02-27 08:02:00,30.7,13.8,30.19,NNE,17,6.0,7.0,49,0.00,,---,0.00,VWS V14.00,2013-02-27 14:02:00,
2013-02-27 08:05:00,31.3,14.8,30.19,North,10,1.0,7.0,50,0.00,,---,0.00,VWS V14.00,2013-02-27 14:05:00,
2013-02-27 08:06:00,31.5,15.0,30.19,North,11,2.0,7.0,50,0.00,,---,0.00,VWS V14.00,2013-02-27 14:06:00,
2013-02-27 08:07:00,31.6,14.6,30.19,North,11,2.0,7.0,49,0.00,,---,0.00,VWS V14.00,2013-02-27 14:07:00,
2013-02-27 08:10:00,31.9,14.4,30.19,North,11,2.0,7.0,48,0.00,,---,0.00,VWS V14.00,2013-02-27 14:10:00,
2013-02-27 08:11:00,31.9,14.4,30.19,North,10,5.0,7.0,48,0.00,,---,0.00,VWS V14.00,2013-02-27 14:11:00,
2013-02-27 08:12:00,32.1,15.6,30.19,North,10,3.0,7.0,50,0.00,,---,0.00,VWS V14.00,2013-02-27 14:12:00,
2013-02-27 08:15:00,32.2,15.7,30.24,North,10,1.0,7.0,50,0.00,,---,0.00,VWS V14.00,2013-02-27 14:15:00,
2013-02-27 08:16:00,32.4,15.4,30.24,North,10,2.0,7.0,49,0.00,,---,0.00,VWS V14.00,2013-02-27 14:16:00,
2013-02-27 08:17:00,32.4,15.4,30.24,North,10,3.0,7.0,49,0.00,,---,0.00,VWS V14.00,2013-02-27 14:17:00,
2013-02-27 08:20:00,32.5,15.5,30.24,North,359,6.0,10.0,49,0.00,,---,0.00,VWS V14.00,2013-02-27 14:20:00,
2013-02-27 08:22:00,32.8,15.8,30.24,North,359,6.0,10.0,49,0.00,,---,0.00,VWS V14.00,2013-02-27 14:22:00,
2013-02-27 08:26:00,32.9,15.4,30.24,NNE,18,3.0,10.0,48,0.00,,---,0.00,VWS V14.00,2013-02-27 14:26:00,
2013-02-27 08:27:00,33.1,15.6,30.24,NNE,16,6.0,10.0,48,0.00,,---,0.00,VWS V14.00,2013-02-27 14:27:00,
2013-02-27 08:28:00,33.1,15.1,30.24,North,11,5.0,10.0,47,0.00,,---,0.00,VWS V14.00,2013-02-27 14:28:00,
2013-02-27 08:31:00,33.2,15.6,30.23,NNE,21,6.0,12.0,48,0.00,,---,0.00,VWS V14.00,2013-02-27 14:31:00,
2013-02-27 08:32:00,33.4,16.3,30.23,North,0,7.0,12.0,49,0.00,,---,0.00,VWS V14.00,2013-02-27 14:32:00,
2013-02-27 08:33:00,33.4,16.3,30.23,NNE,31,7.0,12.0,49,0.00,,---,0.00,VWS V14.00,2013-02-27 14:33:00,
2013-02-27 08:36:00,33.7,16.1,30.23,North,11,5.0,12.0,48,0.00,,---,0.00,VWS V14.00,2013-02-27 14:36:00,
2013-02-27 08:37:00,33.8,16.7,30.23,North,0,5.0,12.0,49,0.00,,---,0.00,VWS V14.00,2013-02-27 14:37:00,
2013-02-27 08:38:00,33.8,16.2,30.23,NE,35,5.0,12.0,48,0.00,,---,0.00,VWS V14.00,2013-02-27 14:38:00,
2013-02-27 08:41:00,34.1,16.0,30.23,North,8,7.0,12.0,47,0.00,,---,0.00,VWS V14.00,2013-02-27 14:41:00,
2013-02-27 08:42:00,34.3,16.2,30.23,NE,35,7.0,12.0,47,0.00,,---,0.00,VWS V14.00,2013-02-27 14:42:00,
2013-02-27 08:43:00,34.4,16.3,30.23,NE,34,2.0,12.0,47,0.00,,---,0.00,VWS V14.00,2013-02-27 14:43:00,
2013-02-27 08:46:00,34.9,16.7,30.23,North,0,6.0,12.0,47,0.00,,---,0.00,VWS V14.00,2013-02-27 14:46:00,
2013-02-27 08:48:00,34.7,16.5,30.23,NNE,27,9.0,12.0,47,0.00,,---,0.00,VWS V14.00,2013-02-27 14:48:00,
2013-02-27 08:51:00,34.7,16.5,30.23,NNE,31,10.0,12.0,47,0.00,,---,0.00,VWS V14.00,2013-02-27 14:51:00,
2013-02-27 08:53:00,34.7,16.5,30.23,North,359,6.0,12.0,47,0.00,,---,0.00,VWS V14.00,2013-02-27 14:53:00,
2013-02-27 08:56:00,34.9,15.7,30.23,North,354,6.0,13.0,45,0.00,,---,0.00,VWS V14.00,2013-02-27 14:56:00,
2013-02-27 08:58:00,35.0,16.8,30.23,North,359,9.0,13.0,47,0.00,,---,0.00,VWS V14.00,2013-02-27 14:58:00,
2013-02-27 09:02:00,35.0,16.3,30.23,North,6,6.0,10.0,46,0.00,,---,0.00,VWS V14.00,2013-02-27 15:02:00,
2013-02-27 09:03:00,35.2,16.0,30.23,NNE,25,7.0,10.0,45,0.00,,---,0.00,VWS V14.00,2013-02-27 15:03:00,
2013-02-27 09:07:00,35.5,16.3,30.23,NNE,27,8.0,14.0,45,0.00,,---,0.00,VWS V14.00,2013-02-27 15:07:00,
2013-02-27 09:08:00,35.3,16.1,30.23,NE,44,9.0,14.0,45,0.00,,---,0.00,VWS V14.00,2013-02-27 15:08:00,
2013-02-27 09:12:00,35.2,16.0,30.23,North,359,6.0,14.0,45,0.00,,---,0.00,VWS V14.00,2013-02-27 15:12:00,
2013-02-27 09:13:00,35.5,15.8,30.23,North,11,5.0,14.0,44,0.00,,---,0.00,VWS V14.00,2013-02-27 15:13:00,
2013-02-27 09:17:00,35.5,15.8,30.26,North,359,9.0,14.0,44,0.00,,---,0.00,VWS V14.00,2013-02-27 15:17:00,
2013-02-27 09:18:00,35.6,16.4,30.26,North,0,7.0,14.0,45,0.00,,---,0.00,VWS V14.00,2013-02-27 15:18:00,
2013-02-27 09:19:00,35.6,16.4,30.26,North,356,7.0,14.0,45,0.00,,---,0.00,VWS V14.00,2013-02-27 15:19:00,
2013-02-27 09:23:00,35.8,15.5,30.26,North,353,10.0,14.0,43,0.00,,---,0.00,VWS V14.00,2013-02-27 15:23:00,
2013-02-27 09:24:00,35.9,17.1,30.26,North,359,10.0,14.0,46,0.00,,---,0.00,VWS V14.00,2013-02-27 15:24:00,
2013-02-27 09:28:00,36.3,16.5,30.26,North,4,5.0,14.0,44,0.00,,---,0.00,VWS V14.00,2013-02-27 15:28:00,
2013-02-27 09:29:00,36.5,16.7,30.26,NNE,28,7.0,14.0,44,0.00,,---,0.00,VWS V14.00,2013-02-27 15:29:00,
2013-02-27 09:33:00,36.8,15.3,30.25,NNE,16,11.0,12.0,41,0.00,,---,0.00,VWS V14.00,2013-02-27 15:33:00,
2013-02-27 09:34:00,36.9,16.5,30.25,North,354,5.0,12.0,43,0.00,,---,0.00,VWS V14.00,2013-02-27 15:34:00,
2013-02-27 09:38:00,37.0,16.6,30.25,North,0,5.0,12.0,43,0.00,,---,0.00,VWS V14.00,2013-02-27 15:38:00,
2013-02-27 09:39:00,37.0,16.6,30.25,North,350,8.0,12.0,43,0.00,,---,0.00,VWS V14.00,2013-02-27 15:39:00,
2013-02-27 09:43:00,37.2,16.8,30.25,North,359,6.0,12.0,43,0.00,,---,0.00,VWS V14.00,2013-02-27 15:43:00,
2013-02-27 09:44:00,37.0,16.1,30.26,North,357,5.0,12.0,42,0.00,,---,0.00,VWS V14.00,2013-02-27 15:44:00,
2013-02-27 09:45:00,37.0,16.1,30.26,NNE,25,7.0,12.0,42,0.00,,---,0.00,VWS V14.00,2013-02-27 15:45:00,
2013-02-27 09:48:00,37.6,16.0,30.26,NNE,21,5.0,12.0,41,0.00,,---,0.00,VWS V14.00,2013-02-27 15:48:00,
2013-02-27 09:49:00,37.6,16.6,30.26,NNE,17,7.0,12.0,42,0.00,,---,0.00,VWS V14.00,2013-02-27 15:49:00,
2013-02-27 09:50:00,37.6,16.6,30.26,NNE,13,0.0,12.0,42,0.00,,---,0.00,VWS V14.00,2013-02-27 15:50:00,
2013-02-27 09:53:00,37.6,15.5,30.26,North,354,6.0,12.0,40,0.00,,---,0.00,VWS V14.00,2013-02-27 15:53:00,
2013-02-27 09:54:00,37.6,15.5,30.26,NNE,32,8.0,12.0,40,0.00,,---,0.00,VWS V14.00,2013-02-27 15:54:00,
2013-02-27 09:55:00,37.6,15.5,30.26,North,10,6.0,13.0,40,0.00,,---,0.00,VWS V14.00,2013-02-27 15:55:00,
2013-02-27 09:58:00,37.6,15.5,30.26,North,1,10.0,13.0,40,0.00,,---,0.00,VWS V14.00,2013-02-27 15:58:00,
2013-02-27 09:59:00,37.5,16.0,30.26,North,4,7.0,13.0,41,0.00,,---,0.00,VWS V14.00,2013-02-27 15:59:00,
2013-02-27 10:00:00,37.5,16.0,30.26,NNE,27,5.0,10.0,41,0.00,,---,0.00,VWS V14.00,2013-02-27 16:00:00,
2013-02-27 10:03:00,37.2,16.2,30.26,NNE,24,7.0,12.0,42,0.00,,---,0.00,VWS V14.00,2013-02-27 16:03:00,
2013-02-27 10:04:00,37.5,15.4,30.26,NNE,24,8.0,12.0,40,0.00,,---,0.00,VWS V14.00,2013-02-27 16:04:00,
2013-02-27 10:05:00,37.8,16.2,30.26,NNE,28,10.0,12.0,41,0.00,,---,0.00,VWS V14.00,2013-02-27 16:05:00,
2013-02-27 10:08:00,37.6,14.9,30.26,North,7,11.0,13.0,39,0.00,,---,0.00,VWS V14.00,2013-02-27 16:08:00,
2013-02-27 10:09:00,37.8,15.1,30.26,NNE,24,8.0,13.0,39,0.00,,---,0.00,VWS V14.00,2013-02-27 16:09:00,
2013-02-27 10:10:00,37.8,15.1,30.26,NNE,23,9.0,13.0,39,0.00,,---,0.00,VWS V14.00,2013-02-27 16:10:00,
2013-02-27 10:13:00,38.3,16.1,30.26,NNE,14,7.0,13.0,40,0.00,,---,0.00,VWS V14.00,2013-02-27 16:13:00,
2013-02-27 10:14:00,38.0,14.7,30.14,NNE,27,10.0,16.0,38,0.00,,---,0.00,VWS V14.00,2013-02-27 16:14:00,
2013-02-27 10:15:00,37.9,15.8,30.14,NNE,25,10.0,16.0,40,0.00,,---,0.00,VWS V14.00,2013-02-27 16:15:00,
2013-02-27 10:19:00,37.9,16.3,30.14,NNE,13,10.0,16.0,41,0.00,,---,0.00,VWS V14.00,2013-02-27 16:19:00,
2013-02-27 10:20:00,38.0,15.3,30.14,North,10,7.0,16.0,39,0.00,,---,0.00,VWS V14.00,2013-02-27 16:20:00,
2013-02-27 10:24:00,38.5,15.1,30.14,NNE,24,12.0,16.0,38,0.00,,---,0.00,VWS V14.00,2013-02-27 16:24:00,
2013-02-27 10:25:00,38.5,15.1,30.14,North,10,0.0,16.0,38,0.00,,---,0.00,VWS V14.00,2013-02-27 16:25:00,
2013-02-27 10:29:00,37.9,15.2,30.14,NNE,23,8.0,16.0,39,0.00,,---,0.00,VWS V14.00,2013-02-27 16:29:00,
2013-02-27 10:30:00,37.8,15.1,30.14,North,4,5.0,5.0,39,0.00,,---,0.00,VWS V14.00,2013-02-27 16:30:00,
2013-02-27 10:31:00,38.0,15.3,30.14,North,1,6.0,8.0,39,0.00,,---,0.00,VWS V14.00,2013-02-27 16:31:00,
2013-02-27 10:34:00,39.2,15.1,30.14,NE,34,7.0,11.0,37,0.00,,---,0.00,VWS V14.00,2013-02-27 16:34:00,
2013-02-27 10:35:00,39.1,15.6,30.14,NE,47,10.0,11.0,38,0.00,,---,0.00,VWS V14.00,2013-02-27 16:35:00,
2013-02-27 10:36:00,39.1,14.4,30.14,NE,49,8.0,11.0,36,0.00,,---,0.00,VWS V14.00,2013-02-27 16:36:00,
2013-02-27 10:39:00,38.9,14.2,30.14,North,3,12.0,12.0,36,0.00,,---,0.00,VWS V14.00,2013-02-27 16:39:00,
2013-02-27 10:40:00,38.8,14.1,30.14,NNE,16,10.0,12.0,36,0.00,,---,0.00,VWS V14.00,2013-02-27 16:40:00,
2013-02-27 10:41:00,38.5,13.9,30.14,NNE,20,7.0,14.0,36,0.00,,---,0.00,VWS V14.00,2013-02-27 16:41:00,
2013-02-27 10:44:00,38.9,14.2,30.14,North,0,5.0,14.0,36,0.00,,---,0.00,VWS V14.00,2013-02-27 16:44:00,
2013-02-27 10:45:00,39.2,14.5,30.14,NNW,336,10.0,14.0,36,0.00,,---,0.00,VWS V14.00,2013-02-27 16:45:00,
2013-02-27 10:46:00,39.3,14.6,30.14,North,3,8.0,14.0,36,0.00,,---,0.00,VWS V14.00,2013-02-27 16:46:00,
2013-02-27 10:47:00,39.3,14.6,30.14,NNE,30,5.0,14.0,36,0.00,,---,0.00,VWS V14.00,2013-02-27 16:47:00,
2013-02-27 10:49:00,39.2,14.5,30.14,NNE,13,7.0,14.0,36,0.00,,---,0.00,VWS V14.00,2013-02-27 16:49:00,
2013-02-27 10:51:00,39.6,14.9,30.14,North,0,10.0,14.0,36,0.00,,---,0.00,VWS V14.00,2013-02-27 16:51:00,
2013-02-27 10:52:00,39.3,13.3,30.14,NNE,18,10.0,14.0,34,0.00,,---,0.00,VWS V14.00,2013-02-27 16:52:00,
2013-02-27 10:54:00,39.5,14.8,30.14,NNE,23,3.0,14.0,36,0.00,,---,0.00,VWS V14.00,2013-02-27 16:54:00,
2013-02-27 10:56:00,39.5,14.8,30.14,North,6,8.0,14.0,36,0.00,,---,0.00,VWS V14.00,2013-02-27 16:56:00,
2013-02-27 10:57:00,39.8,15.0,30.14,NNE,24,10.0,14.0,36,0.00,,---,0.00,VWS V14.00,2013-02-27 16:57:00,
2013-02-27 11:00:00,39.8,13.7,30.13,NNE,31,7.0,7.0,34,0.00,,---,0.00,VWS V14.00,2013-02-27 17:00:00,
2013-02-27 11:01:00,39.9,13.8,30.13,NNE,17,6.0,12.0,34,0.00,,---,0.00,VWS V14.00,2013-02-27 17:01:00,
2013-02-27 11:02:00,39.6,14.2,30.13,NNE,21,8.0,13.0,35,0.00,,---,0.00,VWS V14.00,2013-02-27 17:02:00,
2013-02-27 11:05:00,39.5,13.5,30.13,North,1,5.0,17.0,34,0.00,,---,0.00,VWS V14.00,2013-02-27 17:05:00,
2013-02-27 11:06:00,39.6,14.9,30.13,NE,47,7.0,17.0,36,0.00,,---,0.00,VWS V14.00,2013-02-27 17:06:00,
2013-02-27 11:07:00,39.9,15.1,30.13,North,356,7.0,17.0,36,0.00,,---,0.00,VWS V14.00,2013-02-27 17:07:00,
2013-02-27 11:10:00,40.3,13.5,30.13,NNE,23,12.0,17.0,33,0.00,,---,0.00,VWS V14.00,2013-02-27 17:10:00,
2013-02-27 11:11:00,40.3,13.5,30.13,NNE,20,8.0,17.0,33,0.00,,---,0.00,VWS V14.00,2013-02-27 17:11:00,
2013-02-27 11:12:00,40.3,14.8,30.13,NE,34,5.0,17.0,35,0.00,,---,0.00,VWS V14.00,2013-02-27 17:12:00,
2013-02-27 11:15:00,40.5,13.7,30.13,North,0,8.0,17.0,33,0.00,,---,0.00,VWS V14.00,2013-02-27 17:15:00,
2013-02-27 11:17:00,40.6,13.1,30.13,North,0,5.0,17.0,32,0.00,,---,0.00,VWS V14.00,2013-02-27 17:17:00,
2013-02-27 11:21:00,40.8,12.5,30.13,NNE,27,8.0,17.0,31,0.00,,---,0.00,VWS V14.00,2013-02-27 17:21:00,
2013-02-27 11:22:00,40.9,14.0,30.13,NNE,24,10.0,17.0,33,0.00,,---,0.00,VWS V14.00,2013-02-27 17:22:00,
2013-02-27 11:23:00,40.6,13.8,30.13,North,8,6.0,17.0,33,0.00,,---,0.00,VWS V14.00,2013-02-27 17:23:00,
2013-02-27 11:26:00,40.9,14.7,30.13,NNE,30,6.0,17.0,34,0.00,,---,0.00,VWS V14.00,2013-02-27 17:26:00,
2013-02-27 11:27:00,41.1,14.2,30.13,NE,38,8.0,17.0,33,0.00,,---,0.00,VWS V14.00,2013-02-27 17:27:00,
2013-02-27 11:28:00,40.9,13.3,30.13,NE,41,5.0,17.0,32,0.00,,---,0.00,VWS V14.00,2013-02-27 17:28:00,
2013-02-27 11:31:00,41.1,13.5,30.13,NE,55,5.0,8.0,32,0.00,,---,0.00,VWS V14.00,2013-02-27 17:31:00,
2013-02-27 11:32:00,41.2,13.6,30.13,NE,40,6.0,11.0,32,0.00,,---,0.00,VWS V14.00,2013-02-27 17:32:00,
2013-02-27 11:33:00,41.3,13.7,30.13,NE,35,4.0,11.0,32,0.00,,---,0.00,VWS V14.00,2013-02-27 17:33:00,
2013-02-27 11:36:00,42.2,13.8,30.13,North,0,7.0,13.0,31,0.00,,---,0.00,VWS V14.00,2013-02-27 17:36:00,
2013-02-27 11:37:00,42.8,13.5,30.13,NNE,23,3.0,13.0,30,0.00,,---,0.00,VWS V14.00,2013-02-27 17:37:00,
2013-02-27 11:38:00,42.9,13.6,30.13,NE,38,5.0,13.0,30,0.00,,---,0.00,VWS V14.00,2013-02-27 17:38:00,
2013-02-27 11:41:00,42.3,12.3,30.13,NNE,21,5.0,13.0,29,0.00,,---,0.00,VWS V14.00,2013-02-27 17:41:00,
2013-02-27 11:42:00,42.6,12.6,30.13,NNE,32,6.0,13.0,29,0.00,,---,0.00,VWS V14.00,2013-02-27 17:42:00,
2013-02-27 11:43:00,42.6,12.6,30.13,North,8,8.0,13.0,29,0.00,,---,0.00,VWS V14.00,2013-02-27 17:43:00,
2013-02-27 11:46:00,43.2,13.1,30.12,NE,34,3.0,13.0,29,0.00,,---,0.00,VWS V14.00,2013-02-27 17:46:00,
2013-02-27 11:47:00,43.3,13.2,30.12,NNE,20,6.0,13.0,29,0.00,,---,0.00,VWS V14.00,2013-02-27 17:47:00,
2013-02-27 11:48:00,43.3,13.2,30.12,NNE,28,9.0,13.0,29,0.00,,---,0.00,VWS V14.00,2013-02-27 17:48:00,
2013-02-27 11:52:00,43.6,13.5,30.12,North,10,2.0,13.0,29,0.00,,---,0.00,VWS V14.00,2013-02-27 17:52:00,
2013-02-27 11:53:00,43.9,12.9,30.12,NE,42,5.0,13.0,28,0.00,,---,0.00,VWS V14.00,2013-02-27 17:53:00,
2013-02-27 11:57:00,44.1,13.9,30.12,NE,51,0.0,13.0,29,0.00,,---,0.00,VWS V14.00,2013-02-27 17:57:00,
2013-02-27 11:58:00,44.2,14.0,30.12,NE,35,0.0,13.0,29,0.00,,---,0.00,VWS V14.00,2013-02-27 17:58:00,
2013-02-27 12:02:00,44.5,13.4,30.10,NE,44,0.0,4.0,28,0.00,,---,0.00,VWS V14.00,2013-02-27 18:02:00,
2013-02-27 12:03:00,44.9,13.8,30.10,NE,51,0.0,4.0,28,0.00,,---,0.00,VWS V14.00,2013-02-27 18:03:00,
2013-02-27 12:07:00,44.8,13.7,30.10,NNW,340,7.0,10.0,28,0.00,,---,0.00,VWS V14.00,2013-02-27 18:07:00,
2013-02-27 12:08:00,44.8,12.9,30.10,North,352,7.0,10.0,27,0.00,,---,0.00,VWS V14.00,2013-02-27 18:08:00,
2013-02-27 12:09:00,44.6,13.5,30.10,North,10,6.0,12.0,28,0.00,,---,0.00,VWS V14.00,2013-02-27 18:09:00,
2013-02-27 12:12:00,43.8,13.6,30.10,North,349,6.0,12.0,29,0.00,,---,0.00,VWS V14.00,2013-02-27 18:12:00,
2013-02-27 12:13:00,43.6,13.5,30.10,NNW,347,8.0,12.0,29,0.00,,---,0.00,VWS V14.00,2013-02-27 18:13:00,
2013-02-27 12:14:00,43.6,13.5,30.17,North,352,0.0,12.0,29,0.00,,---,0.00,VWS V14.00,2013-02-27 18:14:00,
2013-02-27 12:17:00,43.3,14.0,30.17,ENE,64,4.0,17.0,30,0.00,,---,0.00,VWS V14.00,2013-02-27 18:17:00,
2013-02-27 12:18:00,43.3,13.2,30.17,ENE,61,5.0,17.0,29,0.00,,---,0.00,VWS V14.00,2013-02-27 18:18:00,
2013-02-27 12:19:00,43.5,14.1,30.17,NNE,27,7.0,17.0,30,0.00,,---,0.00,VWS V14.00,2013-02-27 18:19:00,
2013-02-27 12:22:00,44.8,13.7,30.17,NNE,23,7.0,17.0,28,0.00,,---,0.00,VWS V14.00,2013-02-27 18:22:00,
2013-02-27 12:23:00,44.6,13.5,30.17,NE,34,12.0,17.0,28,0.00,,---,0.00,VWS V14.00,2013-02-27 18:23:00,
2013-02-27 12:24:00,44.5,13.4,30.17,North,11,11.0,17.0,28,0.00,,---,0.00,VWS V14.00,2013-02-27 18:24:00,
2013-02-27 12:27:00,43.9,13.7,30.17,NNE,27,6.0,17.0,29,0.00,,---,0.00,VWS V14.00,2013-02-27 18:27:00,
2013-02-27 12:28:00,43.8,13.6,30.17,NE,34,6.0,17.0,29,0.00,,---,0.00,VWS V14.00,2013-02-27 18:28:00,
2013-02-27 12:29:00,43.8,13.6,30.17,North,7,5.0,17.0,29,0.00,,---,0.00,VWS V14.00,2013-02-27 18:29:00,
2013-02-27 12:33:00,44.3,14.1,30.17,North,352,5.0,11.0,29,0.00,,---,0.00,VWS V14.00,2013-02-27 18:33:00,
2013-02-27 12:34:00,44.5,13.4,30.17,NNW,347,6.0,11.0,28,0.00,,---,0.00,VWS V14.00,2013-02-27 18:34:00,
2013-02-27 12:38:00,44.3,13.3,30.17,North,1,5.0,12.0,28,0.00,,---,0.00,VWS V14.00,2013-02-27 18:38:00,
2013-02-27 12:39:00,44.6,13.5,30.17,NE,48,3.0,12.0,28,0.00,,---,0.00,VWS V14.00,2013-02-27 18:39:00,
2013-02-27 12:43:00,44.9,13.8,30.17,NNE,30,3.0,12.0,28,0.00,,---,0.00,VWS V14.00,2013-02-27 18:43:00,
2013-02-27 12:44:00,44.9,13.8,30.16,NNE,24,8.0,12.0,28,0.00,,---,0.00,VWS V14.00,2013-02-27 18:44:00,
2013-02-27 12:48:00,44.6,14.3,30.16,NE,48,9.0,12.0,29,0.00,,---,0.00,VWS V14.00,2013-02-27 18:48:00,
2013-02-27 12:49:00,44.6,14.3,30.16,NE,52,7.0,12.0,29,0.00,,---,0.00,VWS V14.00,2013-02-27 18:49:00,
2013-02-27 12:53:00,45.5,14.3,30.16,NNE,16,10.0,12.0,28,0.00,,---,0.00,VWS V14.00,2013-02-27 18:53:00,
2013-02-27 12:54:00,45.7,14.5,30.16,NE,41,6.0,12.0,28,0.00,,---,0.00,VWS V14.00,2013-02-27 18:54:00,
2013-02-27 12:58:00,45.5,14.3,30.16,NNW,328,5.0,12.0,28,0.00,,---,0.00,VWS V14.00,2013-02-27 18:58:00,
2013-02-27 12:59:00,45.5,14.3,30.16,NW,326,2.0,12.0,28,0.00,,---,0.00,VWS V14.00,2013-02-27 18:59:00,
2013-02-27 13:03:00,45.7,13.6,30.14,North,8,6.0,13.0,27,0.00,,---,0.00,VWS V14.00,2013-02-27 19:03:00,
2013-02-27 13:04:00,45.8,13.7,30.14,North,3,4.0,13.0,27,0.00,,---,0.00,VWS V14.00,2013-02-27 19:04:00,
2013-02-27 13:08:00,45.2,13.2,30.14,NNE,20,2.0,13.0,27,0.00,,---,0.00,VWS V14.00,2013-02-27 19:08:00,
2013-02-27 13:09:00,45.4,13.4,30.14,NNE,27,4.0,13.0,27,0.00,,---,0.00,VWS V14.00,2013-02-27 19:09:00,
2013-02-27 13:13:00,45.7,13.6,30.14,NE,44,5.0,13.0,27,0.00,,---,0.00,VWS V14.00,2013-02-27 19:13:00,
2013-02-27 13:14:00,45.7,13.6,30.15,NE,45,3.0,13.0,27,0.00,,---,0.00,VWS V14.00,2013-02-27 19:14:00,
2013-02-27 13:18:00,46.5,14.3,30.15,NE,34,10.0,14.0,27,0.00,,---,0.00,VWS V14.00,2013-02-27 19:18:00,
2013-02-27 13:19:00,46.4,14.2,30.15,North,10,9.0,14.0,27,0.00,,---,0.00,VWS V14.00,2013-02-27 19:19:00,
2013-02-27 13:20:00,46.4,14.2,30.15,NE,38,7.0,14.0,27,0.00,,---,0.00,VWS V14.00,2013-02-27 19:20:00,
2013-02-27 13:24:00,46.0,14.7,30.15,NE,48,5.0,14.0,28,0.00,,---,0.00,VWS V14.00,2013-02-27 19:24:00,
2013-02-27 13:25:00,46.0,14.7,30.15,NE,34,14.0,14.0,28,0.00,,---,0.00,VWS V14.00,2013-02-27 19:25:00,
2013-02-27 13:29:00,46.4,15.1,30.15,NE,52,14.0,14.0,28,0.00,,---,0.00,VWS V14.00,2013-02-27 19:29:00,
2013-02-27 13:30:00,46.8,15.4,30.15,NNE,28,13.0,13.0,28,0.00,,---,0.00,VWS V14.00,2013-02-27 19:30:00,
2013-02-27 13:34:00,47.4,14.2,30.15,NNE,24,6.0,13.0,26,0.00,,---,0.00,VWS V14.00,2013-02-27 19:34:00,
2013-02-27 13:35:00,47.9,14.7,30.15,NNE,16,7.0,13.0,26,0.00,,---,0.00,VWS V14.00,2013-02-27 19:35:00,
2013-02-27 13:39:00,47.1,13.1,30.15,NE,56,2.0,13.0,25,0.00,,---,0.00,VWS V14.00,2013-02-27 19:39:00,
2013-02-27 13:40:00,47.1,13.1,30.15,NE,41,3.0,13.0,25,0.00,,---,0.00,VWS V14.00,2013-02-27 19:40:00,
2013-02-27 13:44:00,46.0,13.9,30.14,NE,42,5.0,13.0,27,0.00,,---,0.00,VWS V14.00,2013-02-27 19:44:00,
2013-02-27 13:45:00,45.8,13.7,30.14,NE,44,6.0,13.0,27,0.00,,---,0.00,VWS V14.00,2013-02-27 19:45:00,
2013-02-27 13:49:00,45.4,13.4,30.14,NE,40,11.0,13.0,27,0.00,,---,0.00,VWS V14.00,2013-02-27 19:49:00,
2013-02-27 13:50:00,45.7,13.6,30.14,ENE,72,5.0,13.0,27,0.00,,---,0.00,VWS V14.00,2013-02-27 19:50:00,
2013-02-27 13:54:00,46.8,11.9,30.14,East,85,2.0,13.0,24,0.00,,---,0.00,VWS V14.00,2013-02-27 19:54:00,
2013-02-27 13:55:00,46.7,11.8,30.14,NE,38,6.0,13.0,24,0.00,,---,0.00,VWS V14.00,2013-02-27 19:55:00,
2013-02-27 13:59:00,47.0,13.0,30.13,NE,47,9.0,13.0,25,0.00,,---,0.00,VWS V14.00,2013-02-27 19:59:00,
2013-02-27 14:00:00,47.1,13.1,30.13,ENE,62,5.0,7.0,25,0.00,,---,0.00,VWS V14.00,2013-02-27 20:00:00,
2013-02-27 14:04:00,47.3,13.3,30.13,East,96,8.0,10.0,25,0.00,,---,0.00,VWS V14.00,2013-02-27 20:04:00,
2013-02-27 14:05:00,47.4,13.4,30.13,NE,35,2.0,11.0,25,0.00,,---,0.00,VWS V14.00,2013-02-27 20:05:00,
2013-02-27 14:06:00,47.3,12.4,30.13,East,93,8.0,11.0,24,0.00,,---,0.00,VWS V14.00,2013-02-27 20:06:00,
2013-02-27 14:09:00,47.3,12.4,30.13,ENE,64,5.0,11.0,24,0.00,,---,0.00,VWS V14.00,2013-02-27 20:09:00,
2013-02-27 14:10:00,47.0,12.1,30.13,NE,51,5.0,12.0,24,0.00,,---,0.00,VWS V14.00,2013-02-27 20:10:00,
2013-02-27 14:11:00,47.0,12.1,30.13,NE,44,5.0,12.0,24,0.00,,---,0.00,VWS V14.00,2013-02-27 20:11:00,
2013-02-27 14:14:00,46.4,13.4,30.14,NNE,25,0.0,16.0,26,0.00,,---,0.00,VWS V14.00,2013-02-27 20:14:00,
2013-02-27 14:16:00,46.8,12.9,30.14,ENE,61,10.0,16.0,25,0.00,,---,0.00,VWS V14.00,2013-02-27 20:16:00,
2013-02-27 14:20:00,46.4,12.5,30.14,ENE,62,10.0,16.0,25,0.00,,---,0.00,VWS V14.00,2013-02-27 20:20:00,
2013-02-27 14:21:00,46.2,12.3,30.14,NE,48,5.0,16.0,25,0.00,,---,0.00,VWS V14.00,2013-02-27 20:21:00,
2013-02-27 14:25:00,46.5,12.6,30.14,NNE,32,2.0,16.0,25,0.00,,---,0.00,VWS V14.00,2013-02-27 20:25:00,
2013-02-27 14:26:00,46.8,12.9,30.14,East,88,11.0,16.0,25,0.00,,---,0.00,VWS V14.00,2013-02-27 20:26:00,
2013-02-27 14:30:00,45.7,11.9,30.14,ENE,58,5.0,10.0,25,0.00,,---,0.00,VWS V14.00,2013-02-27 20:30:00,
2013-02-27 14:31:00,45.7,11.9,30.14,ENE,58,5.0,10.0,25,0.00,,---,0.00,VWS V14.00,2013-02-27 20:31:00,
2013-02-27 14:35:00,46.7,11.8,30.14,ENE,69,7.0,10.0,24,0.00,,---,0.00,VWS V14.00,2013-02-27 20:35:00,
2013-02-27 14:36:00,46.8,11.9,30.14,NNE,16,1.0,10.0,24,0.00,,---,0.00,VWS V14.00,2013-02-27 20:36:00,
2013-02-27 14:37:00,46.8,10.0,30.14,NE,45,5.0,10.0,22,0.00,,---,0.00,VWS V14.00,2013-02-27 20:37:00,
2013-02-27 14:40:00,47.6,11.6,30.14,East,86,3.0,11.0,23,0.00,,---,0.00,VWS V14.00,2013-02-27 20:40:00,
2013-02-27 14:41:00,47.6,10.6,30.14,East,86,3.0,11.0,22,0.00,,---,0.00,VWS V14.00,2013-02-27 20:41:00,
2013-02-27 14:42:00,47.4,10.5,30.14,East,89,1.0,11.0,22,0.00,,---,0.00,VWS V14.00,2013-02-27 20:42:00,
2013-02-27 14:45:00,46.8,10.0,30.13,North,11,7.0,13.0,22,0.00,,---,0.00,VWS V14.00,2013-02-27 20:45:00,
2013-02-27 14:46:00,47.0,10.1,30.13,North,7,7.0,13.0,22,0.00,,---,0.00,VWS V14.00,2013-02-27 20:46:00,
2013-02-27 14:47:00,47.1,12.2,30.13,NE,47,7.0,13.0,24,0.00,,---,0.00,VWS V14.00,2013-02-27 20:47:00,
2013-02-27 14:50:00,46.2,10.5,30.13,East,97,4.0,14.0,23,0.00,,---,0.00,VWS V14.00,2013-02-27 20:50:00,
2013-02-27 14:51:00,46.5,11.7,30.13,NE,52,2.0,14.0,24,0.00,,---,0.00,VWS V14.00,2013-02-27 20:51:00,
2013-02-27 14:52:00,46.7,11.8,30.13,East,99,5.0,14.0,24,0.00,,---,0.00,VWS V14.00,2013-02-27 20:52:00,
2013-02-27 14:56:00,46.7,9.9,30.13,ENE,59,6.0,14.0,22,0.00,,---,0.00,VWS V14.00,2013-02-27 20:56:00,
2013-02-27 14:57:00,47.0,11.1,30.13,ENE,68,11.0,16.0,23,0.00,,---,0.00,VWS V14.00,2013-02-27 20:57:00,
2013-02-27 15:00:00,46.8,11.0,30.14,NNE,30,7.0,10.0,23,0.00,,---,0.00,VWS V14.00,2013-02-27 21:00:00,
2013-02-27 15:01:00,46.8,11.0,30.14,NE,37,6.0,10.0,23,0.00,,---,0.00,VWS V14.00,2013-02-27 21:01:00,
2013-02-27 15:02:00,47.0,11.1,30.14,NNE,13,9.0,11.0,23,0.00,,---,0.00,VWS V14.00,2013-02-27 21:02:00,
2013-02-27 15:06:00,47.7,10.7,30.14,NE,52,1.0,11.0,22,0.00,,---,0.00,VWS V14.00,2013-02-27 21:06:00,
2013-02-27 15:07:00,47.9,10.9,30.14,East,88,4.0,11.0,22,0.00,,---,0.00,VWS V14.00,2013-02-27 21:07:00,
2013-02-27 15:11:00,47.7,10.7,30.14,NNE,21,5.0,13.0,22,0.00,,---,0.00,VWS V14.00,2013-02-27 21:11:00,
2013-02-27 15:12:00,47.4,9.4,30.14,ENE,64,3.0,13.0,21,0.00,,---,0.00,VWS V14.00,2013-02-27 21:12:00,
2013-02-27 15:16:00,47.1,10.2,30.14,East,80,2.0,13.0,22,0.00,,---,0.00,VWS V14.00,2013-02-27 21:16:00,
2013-02-27 15:17:00,47.3,10.4,30.14,NE,47,3.0,13.0,22,0.00,,---,0.00,VWS V14.00,2013-02-27 21:17:00,
2013-02-27 15:21:00,47.6,10.6,30.14,North,11,7.0,13.0,22,0.00,,---,0.00,VWS V14.00,2013-02-27 21:21:00,
2013-02-27 15:22:00,47.3,10.4,30.14,North,0,7.0,13.0,22,0.00,,---,0.00,VWS V14.00,2013-02-27 21:22:00,
2013-02-27 15:26:00,47.3,9.4,30.14,North,11,6.0,13.0,21,0.00,,---,0.00,VWS V14.00,2013-02-27 21:26:00,
2013-02-27 15:27:00,47.3,9.4,30.14,NNE,30,3.0,13.0,21,0.00,,---,0.00,VWS V14.00,2013-02-27 21:27:00,
2013-02-27 15:28:00,47.3,10.4,30.14,NNE,28,10.0,13.0,22,0.00,,---,0.00,VWS V14.00,2013-02-27 21:28:00,
2013-02-27 15:31:00,47.3,8.3,30.14,NE,48,6.0,8.0,20,0.00,,---,0.00,VWS V14.00,2013-02-27 21:31:00,
2013-02-27 15:32:00,47.4,9.4,30.14,North,1,5.0,8.0,21,0.00,,---,0.00,VWS V14.00,2013-02-27 21:32:00,
2013-02-27 15:33:00,47.4,9.4,30.14,North,1,2.0,8.0,21,0.00,,---,0.00,VWS V14.00,2013-02-27 21:33:00,
2013-02-27 15:36:00,47.3,9.4,30.14,NNE,25,11.0,11.0,21,0.00,,---,0.00,VWS V14.00,2013-02-27 21:36:00,
2013-02-27 15:37:00,47.4,9.4,30.14,NE,52,7.0,11.0,21,0.00,,---,0.00,VWS V14.00,2013-02-27 21:37:00,
2013-02-27 15:38:00,47.4,9.4,30.14,ENE,61,8.0,13.0,21,0.00,,---,0.00,VWS V14.00,2013-02-27 21:38:00,
2013-02-27 15:41:00,47.4,9.4,30.14,NE,41,7.0,13.0,21,0.00,,---,0.00,VWS V14.00,2013-02-27 21:41:00,
2013-02-27 15:42:00,47.1,9.2,30.14,NNE,30,5.0,13.0,21,0.00,,---,0.00,VWS V14.00,2013-02-27 21:42:00,
2013-02-27 15:43:00,47.1,9.2,30.14,NNE,30,3.0,13.0,21,0.00,,---,0.00,VWS V14.00,2013-02-27 21:43:00,
2013-02-27 15:46:00,47.1,9.2,30.13,NNE,25,8.0,13.0,21,0.00,,---,0.00,VWS V14.00,2013-02-27 21:46:00,
2013-02-27 15:48:00,47.1,10.2,30.13,NE,48,6.0,13.0,22,0.00,,---,0.00,VWS V14.00,2013-02-27 21:48:00,
2013-02-27 15:51:00,46.5,9.7,30.13,NE,52,2.0,13.0,22,0.00,,---,0.00,VWS V14.00,2013-02-27 21:51:00,
2013-02-27 15:53:00,46.7,9.9,30.13,NE,49,6.0,13.0,22,0.00,,---,0.00,VWS V14.00,2013-02-27 21:53:00,
2013-02-27 15:57:00,47.0,9.1,30.13,East,88,5.0,13.0,21,0.00,,---,0.00,VWS V14.00,2013-02-27 21:57:00,
2013-02-27 15:58:00,47.0,10.1,30.13,East,85,0.0,13.0,22,0.00,,---,0.00,VWS V14.00,2013-02-27 21:58:00,
2013-02-27 16:02:00,47.0,9.1,30.13,NE,34,0.0,0.0,21,0.00,,---,0.00,VWS V14.00,2013-02-27 22:02:00,
2013-02-27 16:03:00,47.3,9.4,30.13,NE,40,0.0,0.0,21,0.00,,---,0.00,VWS V14.00,2013-02-27 22:03:00,
2013-02-27 16:07:00,47.3,9.4,30.13,NE,49,8.0,11.0,21,0.00,,---,0.00,VWS V14.00,2013-02-27 22:07:00,
2013-02-27 16:08:00,47.3,9.4,30.13,NNE,17,10.0,11.0,21,0.00,,---,0.00,VWS V14.00,2013-02-27 22:08:00,
2013-02-27 16:09:00,47.3,9.4,30.13,North,356,11.0,11.0,21,0.00,,---,0.00,VWS V14.00,2013-02-27 22:09:00,
2013-02-27 16:12:00,47.4,9.4,30.13,ENE,62,2.0,11.0,21,0.00,,---,0.00,VWS V14.00,2013-02-27 22:12:00,
2013-02-27 16:13:00,47.6,10.6,30.13,NE,54,7.0,11.0,22,0.00,,---,0.00,VWS V14.00,2013-02-27 22:13:00,
2013-02-27 16:14:00,47.3,9.4,30.13,NE,55,3.0,11.0,21,0.00,,---,0.00,VWS V14.00,2013-02-27 22:14:00,
2013-02-27 16:17:00,47.1,9.2,30.13,NE,40,1.0,11.0,21,0.00,,---,0.00,VWS V14.00,2013-02-27 22:17:00,
2013-02-27 16:18:00,47.3,9.4,30.13,NE,47,0.0,11.0,21,0.00,,---,0.00,VWS V14.00,2013-02-27 22:18:00,
2013-02-27 16:19:00,47.3,8.3,30.13,ENE,76,3.0,11.0,20,0.00,,---,0.00,VWS V14.00,2013-02-27 22:19:00,
2013-02-27 16:22:00,47.6,9.6,30.13,East,89,6.0,11.0,21,0.00,,---,0.00,VWS V14.00,2013-02-27 22:22:00,
2013-02-27 16:23:00,47.1,9.2,30.13,East,82,2.0,11.0,21,0.00,,---,0.00,VWS V14.00,2013-02-27 22:23:00,
2013-02-27 16:24:00,47.3,9.4,30.13,East,86,0.0,11.0,21,0.00,,---,0.00,VWS V14.00,2013-02-27 22:24:00,
2013-02-27 16:27:00,47.4,8.4,30.13,NE,35,6.0,11.0,20,0.00,,---,0.00,VWS V14.00,2013-02-27 22:27:00,
2013-02-27 16:28:00,47.3,8.3,30.13,NE,34,2.0,11.0,20,0.00,,---,0.00,VWS V14.00,2013-02-27 22:28:00,
2013-02-27 16:29:00,47.3,9.4,30.14,NNE,24,5.0,11.0,21,0.00,,---,0.00,VWS V14.00,2013-02-27 22:29:00,
2013-02-27 16:33:00,46.5,7.6,30.14,North,356,6.0,16.0,20,0.00,,---,0.00,VWS V14.00,2013-02-27 22:33:00,
2013-02-27 16:34:00,47.0,9.1,30.14,ENE,64,7.0,16.0,21,0.00,,---,0.00,VWS V14.00,2013-02-27 22:34:00,
2013-02-27 16:38:00,46.7,8.9,30.14,NE,48,5.0,16.0,21,0.00,,---,0.00,VWS V14.00,2013-02-27 22:38:00,
2013-02-27 16:39:00,46.7,8.9,30.14,NNE,30,3.0,16.0,21,0.00,,---,0.00,VWS V14.00,2013-02-27 22:39:00,
2013-02-27 16:40:00,46.7,8.9,30.14,NNE,31,1.0,16.0,21,0.00,,---,0.00,VWS V14.00,2013-02-27 22:40:00,
2013-02-27 16:43:00,47.1,9.2,30.14,ENE,59,3.0,16.0,21,0.00,,---,0.00,VWS V14.00,2013-02-27 22:43:00,
2013-02-27 16:44:00,47.0,10.1,30.14,NE,48,3.0,16.0,22,0.00,,---,0.00,VWS V14.00,2013-02-27 22:44:00,
2013-02-27 16:45:00,47.0,9.1,30.14,NE,49,6.0,16.0,21,0.00,,---,0.00,VWS V14.00,2013-02-27 22:45:00,
2013-02-27 16:48:00,46.8,8.9,30.14,NE,48,3.0,16.0,21,0.00,,---,0.00,VWS V14.00,2013-02-27 22:48:00,
2013-02-27 16:49:00,46.5,8.7,30.14,NNE,14,10.0,16.0,21,0.00,,---,0.00,VWS V14.00,2013-02-27 22:49:00,
2013-02-27 16:50:00,46.5,8.7,30.14,NNE,13,8.0,16.0,21,0.00,,---,0.00,VWS V14.00,2013-02-27 22:50:00,
2013-02-27 16:53:00,46.1,8.4,30.14,NNE,28,5.0,16.0,21,0.00,,---,0.00,VWS V14.00,2013-02-27 22:53:00,
2013-02-27 16:55:00,46.0,8.3,30.14,NNE,30,0.0,16.0,21,0.00,,---,0.00,VWS V14.00,2013-02-27 22:55:00,
2013-02-27 16:58:00,45.4,7.8,30.14,ENE,78,3.0,16.0,21,0.00,,---,0.00,VWS V14.00,2013-02-27 22:58:00,
2013-02-27 16:59:00,45.2,8.6,30.15,NE,55,2.0,16.0,22,0.00,,---,0.00,VWS V14.00,2013-02-27 22:59:00,
2013-02-27 17:00:00,45.2,8.6,30.15,NE,54,4.0,4.0,22,0.00,,---,0.00,VWS V14.00,2013-02-27 23:00:00,
2013-02-27 17:03:00,45.7,8.0,30.15,NE,44,3.0,6.0,21,0.00,,---,0.00,VWS V14.00,2013-02-27 23:03:00,
2013-02-27 17:04:00,45.8,8.1,30.15,NE,49,5.0,7.0,21,0.00,,---,0.00,VWS V14.00,2013-02-27 23:04:00,
2013-02-27 17:05:00,45.7,9.1,30.15,NE,49,2.0,7.0,22,0.00,,---,0.00,VWS V14.00,2013-02-27 23:05:00,
2013-02-27 17:08:00,45.7,8.0,30.15,NNE,31,6.0,10.0,21,0.00,,---,0.00,VWS V14.00,2013-02-27 23:08:00,
2013-02-27 17:09:00,45.7,9.1,30.15,NE,42,5.0,10.0,22,0.00,,---,0.00,VWS V14.00,2013-02-27 23:09:00,
2013-02-27 17:10:00,45.7,9.1,30.15,NE,55,6.0,10.0,22,0.00,,---,0.00,VWS V14.00,2013-02-27 23:10:00,
2013-02-27 17:11:00,45.7,9.1,30.15,NNE,20,11.0,11.0,22,0.00,,---,0.00,VWS V14.00,2013-02-27 23:11:00,
2013-02-27 17:13:00,45.7,8.0,30.15,NNE,27,5.0,11.0,21,0.00,,---,0.00,VWS V14.00,2013-02-27 23:13:00,
2013-02-27 17:14:00,45.7,9.1,30.13,NNE,31,5.0,11.0,22,0.00,,---,0.00,VWS V14.00,2013-02-27 23:14:00,
2013-02-27 17:15:00,45.7,9.1,30.13,NNE,32,2.0,11.0,22,0.00,,---,0.00,VWS V14.00,2013-02-27 23:15:00,
2013-02-27 17:16:00,45.7,9.1,30.13,NNE,31,1.0,11.0,22,0.00,,---,0.00,VWS V14.00,2013-02-27 23:16:00,
2013-02-27 17:18:00,44.9,8.4,30.13,NE,48,8.0,11.0,22,0.00,,---,0.00,VWS V14.00,2013-02-27 23:18:00,
2013-02-27 17:19:00,44.8,8.3,30.13,ENE,58,6.0,11.0,22,0.00,,---,0.00,VWS V14.00,2013-02-27 23:19:00,
2013-02-27 17:20:00,44.6,9.1,30.13,NE,45,3.0,11.0,23,0.00,,---,0.00,VWS V14.00,2013-02-27 23:20:00,
2013-02-27 17:21:00,44.6,9.1,30.13,NNE,23,7.0,11.0,23,0.00,,---,0.00,VWS V14.00,2013-02-27 23:21:00,
2013-02-27 17:24:00,44.8,8.3,30.13,NNE,23,4.0,11.0,22,0.00,,---,0.00,VWS V14.00,2013-02-27 23:24:00,
2013-02-27 17:25:00,44.6,9.1,30.13,NE,44,6.0,11.0,23,0.00,,---,0.00,VWS V14.00,2013-02-27 23:25:00,
2013-02-27 17:26:00,44.5,9.0,30.13,NE,42,7.0,12.0,23,0.00,,---,0.00,VWS V14.00,2013-02-27 23:26:00,
2013-02-27 17:29:00,43.9,8.5,30.15,North,7,7.0,12.0,23,0.00,,---,0.00,VWS V14.00,2013-02-27 23:29:00,
2013-02-27 17:31:00,43.6,8.3,30.15,North,0,5.0,14.0,23,0.00,,---,0.00,VWS V14.00,2013-02-27 23:31:00,
2013-02-27 17:34:00,43.2,7.9,30.15,NNE,16,12.0,14.0,23,0.00,,---,0.00,VWS V14.00,2013-02-27 23:34:00,
2013-02-27 17:36:00,43.2,7.9,30.15,NNE,27,3.0,14.0,23,0.00,,---,0.00,VWS V14.00,2013-02-27 23:36:00,
2013-02-27 17:39:00,42.8,10.3,30.15,ENE,61,7.0,14.0,26,0.00,,---,0.00,VWS V14.00,2013-02-27 23:39:00,
2013-02-27 17:41:00,42.6,9.3,30.15,NE,37,5.0,14.0,25,0.00,,---,0.00,VWS V14.00,2013-02-27 23:41:00,
2013-02-27 17:44:00,42.6,8.4,30.16,NE,34,1.0,14.0,24,0.00,,---,0.00,VWS V14.00,2013-02-27 23:44:00,
2013-02-27 17:45:00,42.5,8.3,30.16,NNE,24,5.0,14.0,24,0.00,,---,0.00,VWS V14.00,2013-02-27 23:45:00,
2013-02-27 17:46:00,42.5,9.2,30.16,NNE,27,5.0,14.0,25,0.00,,---,0.00,VWS V14.00,2013-02-27 23:46:00,
2013-02-27 17:49:00,42.5,9.2,30.16,NE,47,6.0,14.0,25,0.00,,---,0.00,VWS V14.00,2013-02-27 23:49:00,
2013-02-27 17:50:00,42.5,9.2,30.16,NE,47,3.0,14.0,25,0.00,,---,0.00,VWS V14.00,2013-02-27 23:50:00,
2013-02-27 17:51:00,42.3,8.1,30.16,NE,49,3.0,14.0,24,0.00,,---,0.00,VWS V14.00,2013-02-27 23:51:00,
2013-02-27 17:54:00,42.3,9.0,30.16,NE,49,0.0,14.0,25,0.00,,---,0.00,VWS V14.00,2013-02-27 23:54:00,
2013-02-27 17:55:00,42.3,9.0,30.16,NE,49,0.0,14.0,25,0.00,,---,0.00,VWS V14.00,2013-02-27 23:55:00,
2013-02-27 17:56:00,42.5,9.2,30.16,NE,49,0.0,14.0,25,0.00,,---,0.00,VWS V14.00,2013-02-27 23:56:00,
2013-02-27 17:59:00,42.5,10.1,30.16,NE,38,3.0,14.0,26,0.00,,---,0.00,VWS V14.00,2013-02-27 23:59:00,
2013-02-27 18:00:00,42.5,10.1,30.16,NNE,21,5.0,7.0,26,0.00,,---,0.00,VWS V14.00,2013-02-28 00:00:00,
2013-02-27 18:01:00,42.5,9.2,30.16,NE,35,3.0,7.0,25,0.00,,---,0.00,VWS V14.00,2013-02-28 00:01:00,
2013-02-27 18:05:00,42.6,10.1,30.16,NNE,17,3.0,8.0,26,0.00,,---,0.00,VWS V14.00,2013-02-28 00:05:00,
2013-02-27 18:06:00,42.6,10.1,30.16,NNE,20,6.0,8.0,26,0.00,,---,0.00,VWS V14.00,2013-02-28 00:06:00,
2013-02-27 18:10:00,42.6,10.1,30.16,NNE,24,2.0,8.0,26,0.00,,---,0.00,VWS V14.00,2013-02-28 00:10:00,
2013-02-27 18:11:00,42.6,10.1,30.16,NNE,24,5.0,8.0,26,0.00,,---,0.00,VWS V14.00,2013-02-28 00:11:00,
2013-02-27 18:12:00,42.8,10.3,30.16,NNE,24,2.0,8.0,26,0.00,,---,0.00,VWS V14.00,2013-02-28 00:12:00,
2013-02-27 18:15:00,42.5,10.1,30.18,NNE,25,6.0,11.0,26,0.00,,---,0.00,VWS V14.00,2013-02-28 00:15:00,
2013-02-27 18:16:00,42.5,10.1,30.18,NNE,28,6.0,11.0,26,0.00,,---,0.00,VWS V14.00,2013-02-28 00:16:00,
2013-02-27 18:17:00,42.5,9.2,30.18,NNE,28,2.0,11.0,25,0.00,,---,0.00,VWS V14.00,2013-02-28 00:17:00,
2013-02-27 18:20:00,42.3,9.9,30.18,North,6,6.0,11.0,26,0.00,,---,0.00,VWS V14.00,2013-02-28 00:20:00,
2013-02-27 18:21:00,42.3,9.9,30.18,North,11,5.0,11.0,26,0.00,,---,0.00,VWS V14.00,2013-02-28 00:21:00,
2013-02-27 18:22:00,42.3,9.9,30.18,NNE,13,4.0,11.0,26,0.00,,---,0.00,VWS V14.00,2013-02-28 00:22:00,
2013-02-27 18:25:00,42.2,10.6,30.18,NNE,32,5.0,11.0,27,0.00,,---,0.00,VWS V14.00,2013-02-28 00:25:00,
2013-02-27 18:27:00,42.1,9.7,30.18,North,3,5.0,11.0,26,0.00,,---,0.00,VWS V14.00,2013-02-28 00:27:00,
2013-02-27 18:30:00,41.8,11.1,30.18,NNE,18,6.0,8.0,28,0.00,,---,0.00,VWS V14.00,2013-02-28 00:30:00,
2013-02-27 18:31:00,41.8,11.1,30.18,NNE,18,7.0,8.0,28,0.00,,---,0.00,VWS V14.00,2013-02-28 00:31:00,
2013-02-27 18:32:00,41.6,10.9,30.18,NNE,23,6.0,8.0,28,0.00,,---,0.00,VWS V14.00,2013-02-28 00:32:00,
2013-02-27 18:35:00,41.3,10.7,30.18,NNE,24,3.0,10.0,28,0.00,,---,0.00,VWS V14.00,2013-02-28 00:35:00,
2013-02-27 18:36:00,41.3,10.7,30.18,NNE,24,8.0,10.0,28,0.00,,---,0.00,VWS V14.00,2013-02-28 00:36:00,
2013-02-27 18:37:00,41.3,10.7,30.18,North,3,7.0,10.0,28,0.00,,---,0.00,VWS V14.00,2013-02-28 00:37:00,
2013-02-27 18:40:00,41.1,10.5,30.18,NNE,24,2.0,10.0,28,0.00,,---,0.00,VWS V14.00,2013-02-28 00:40:00,
2013-02-27 18:41:00,40.9,10.3,30.18,NNE,24,0.0,10.0,28,0.00,,---,0.00,VWS V14.00,2013-02-28 00:41:00,
2013-02-27 18:42:00,40.9,9.5,30.18,NNE,25,0.0,10.0,27,0.00,,---,0.00,VWS V14.00,2013-02-28 00:42:00,
2013-02-27 18:45:00,40.6,10.1,30.20,NNE,25,3.0,10.0,28,0.00,,---,0.00,VWS V14.00,2013-02-28 00:45:00,
2013-02-27 18:46:00,40.6,10.1,30.20,NNE,25,6.0,10.0,28,0.00,,---,0.00,VWS V14.00,2013-02-28 00:46:00,
2013-02-27 18:47:00,40.6,10.1,30.20,NNE,25,3.0,10.0,28,0.00,,---,0.00,VWS V14.00,2013-02-28 00:47:00,
2013-02-27 18:51:00,40.5,10.0,30.20,NNE,25,0.0,10.0,28,0.00,,---,0.00,VWS V14.00,2013-02-28 00:51:00,
2013-02-27 18:52:00,40.5,10.0,30.20,NNE,25,0.0,10.0,28,0.00,,---,0.00,VWS V14.00,2013-02-28 00:52:00,
2013-02-27 18:56:00,40.2,9.7,30.20,NNE,25,0.0,10.0,28,0.00,,---,0.00,VWS V14.00,2013-02-28 00:56:00,
2013-02-27 18:57:00,40.2,10.5,30.20,NNE,25,0.0,10.0,29,0.00,,---,0.00,VWS V14.00,2013-02-28 00:57:00,
2013-02-27 18:58:00,40.1,10.4,30.20,NNE,25,0.0,10.0,29,0.00,,---,0.00,VWS V14.00,2013-02-28 00:58:00,
2013-02-27 19:01:00,39.9,10.2,30.20,NNE,25,0.0,0.0,29,0.00,,---,0.00,VWS V14.00,2013-02-28 01:01:00,
2013-02-27 19:02:00,39.8,10.1,30.20,NNE,25,0.0,0.0,29,0.00,,---,0.00,VWS V14.00,2013-02-28 01:02:00,
2013-02-27 19:03:00,39.8,10.1,30.20,NNE,25,0.0,0.0,29,0.00,,---,0.00,VWS V14.00,2013-02-28 01:03:00,
2013-02-27 19:06:00,39.6,10.0,30.20,NNE,25,0.0,0.0,29,0.00,,---,0.00,VWS V14.00,2013-02-28 01:06:00,
2013-02-27 19:07:00,39.6,10.7,30.20,NNE,24,0.0,0.0,30,0.00,,---,0.00,VWS V14.00,2013-02-28 01:07:00,
2013-02-27 19:08:00,39.6,10.0,30.20,NNE,24,0.0,0.0,29,0.00,,---,0.00,VWS V14.00,2013-02-28 01:08:00,
2013-02-27 19:11:00,39.5,10.6,30.20,NNE,24,0.0,0.0,30,0.00,,---,0.00,VWS V14.00,2013-02-28 01:11:00,
2013-02-27 19:12:00,39.3,10.5,30.20,NNE,24,0.0,0.0,30,0.00,,---,0.00,VWS V14.00,2013-02-28 01:12:00,
2013-02-27 19:13:00,39.3,10.5,30.20,NNE,24,0.0,0.0,30,0.00,,---,0.00,VWS V14.00,2013-02-28 01:13:00,
2013-02-27 19:16:00,39.2,10.4,30.22,NNE,24,0.0,0.0,30,0.00,,---,0.00,VWS V14.00,2013-02-28 01:16:00,
2013-02-27 19:17:00,39.2,10.4,30.22,NNE,24,0.0,0.0,30,0.00,,---,0.00,VWS V14.00,2013-02-28 01:17:00,
2013-02-27 19:18:00,39.1,10.3,30.22,NNE,24,0.0,0.0,30,0.00,,---,0.00,VWS V14.00,2013-02-28 01:18:00,
2013-02-27 19:21:00,39.1,10.3,30.22,NNE,24,0.0,0.0,30,0.00,,---,0.00,VWS V14.00,2013-02-28 01:21:00,
2013-02-27 19:22:00,38.9,10.1,30.22,NNE,24,0.0,0.0,30,0.00,,---,0.00,VWS V14.00,2013-02-28 01:22:00,
2013-02-27 19:23:00,38.9,10.1,30.22,NNE,24,0.0,0.0,30,0.00,,---,0.00,VWS V14.00,2013-02-28 01:23:00,
2013-02-27 19:26:00,38.9,10.1,30.22,NNE,24,0.0,0.0,30,0.00,,---,0.00,VWS V14.00,2013-02-28 01:26:00,
2013-02-27 19:27:00,38.9,10.1,30.22,NNE,24,0.0,0.0,30,0.00,,---,0.00,VWS V14.00,2013-02-28 01:27:00,
2013-02-27 19:28:00,38.8,10.0,30.22,NNE,24,0.0,0.0,30,0.00,,---,0.00,VWS V14.00,2013-02-28 01:28:00,
2013-02-27 19:31:00,38.8,10.8,30.23,NNE,24,0.0,0.0,31,0.00,,---,0.00,VWS V14.00,2013-02-28 01:31:00,
2013-02-27 19:32:00,38.8,10.8,30.23,NNE,24,0.0,0.0,31,0.00,,---,0.00,VWS V14.00,2013-02-28 01:32:00,
2013-02-27 19:33:00,38.6,10.6,30.23,NNE,24,0.0,0.0,31,0.00,,---,0.00,VWS V14.00,2013-02-28 01:33:00,
2013-02-27 19:37:00,38.3,10.3,30.23,NNE,24,0.0,0.0,31,0.00,,---,0.00,VWS V14.00,2013-02-28 01:37:00,
2013-02-27 19:38:00,38.3,10.3,30.23,NNE,24,0.0,0.0,31,0.00,,---,0.00,VWS V14.00,2013-02-28 01:38:00,
2013-02-27 19:42:00,37.9,10.7,30.23,NNE,24,0.0,0.0,32,0.00,,---,0.00,VWS V14.00,2013-02-28 01:42:00,
2013-02-27 19:43:00,37.8,9.9,30.23,NNE,24,0.0,0.0,31,0.00,,---,0.00,VWS V14.00,2013-02-28 01:43:00,
2013-02-27 19:44:00,37.8,9.9,30.23,NNE,24,0.0,0.0,31,0.00,,---,0.00,VWS V14.00,2013-02-28 01:44:00,
2013-02-27 19:47:00,37.3,9.4,30.25,NNE,24,0.0,0.0,31,0.00,,---,0.00,VWS V14.00,2013-02-28 01:47:00,
2013-02-27 19:48:00,37.3,10.2,30.25,NNE,24,0.0,0.0,32,0.00,,---,0.00,VWS V14.00,2013-02-28 01:48:00,
2013-02-27 19:49:00,37.3,10.2,30.25,NNE,24,0.0,0.0,32,0.00,,---,0.00,VWS V14.00,2013-02-28 01:49:00,
2013-02-27 19:52:00,37.2,10.8,30.25,NNE,24,0.0,0.0,33,0.00,,---,0.00,VWS V14.00,2013-02-28 01:52:00,
2013-02-27 19:53:00,37.2,10.8,30.25,NNE,24,0.0,0.0,33,0.00,,---,0.00,VWS V14.00,2013-02-28 01:53:00,
2013-02-27 19:54:00,37.0,10.6,30.25,NNE,24,0.0,0.0,33,0.00,,---,0.00,VWS V14.00,2013-02-28 01:54:00,
2013-02-27 19:57:00,37.2,10.8,30.25,NNE,30,0.0,0.0,33,0.00,,---,0.00,VWS V14.00,2013-02-28 01:57:00,
2013-02-27 19:58:00,37.2,10.8,30.25,NNE,30,0.0,0.0,33,0.00,,---,0.00,VWS V14.00,2013-02-28 01:58:00,
2013-02-27 19:59:00,37.2,10.8,30.25,NNE,30,0.0,0.0,33,0.00,,---,0.00,VWS V14.00,2013-02-28 01:59:00,
2013-02-27 20:02:00,37.3,10.9,30.25,NNE,30,0.0,0.0,33,0.00,,---,0.00,VWS V14.00,2013-02-28 02:02:00,
2013-02-27 20:03:00,37.3,10.9,30.25,NNE,30,0.0,0.0,33,0.00,,---,0.00,VWS V14.00,2013-02-28 02:03:00,
2013-02-27 20:04:00,37.3,10.9,30.25,NNE,30,0.0,0.0,33,0.00,,---,0.00,VWS V14.00,2013-02-28 02:04:00,
2013-02-27 20:07:00,36.9,9.8,30.25,NNE,30,0.0,0.0,32,0.00,,---,0.00,VWS V14.00,2013-02-28 02:07:00,
2013-02-27 20:08:00,36.8,9.7,30.25,NNE,30,0.0,0.0,32,0.00,,---,0.00,VWS V14.00,2013-02-28 02:08:00,
2013-02-27 20:09:00,36.8,9.7,30.25,NNE,30,0.0,0.0,32,0.00,,---,0.00,VWS V14.00,2013-02-28 02:09:00,
2013-02-27 20:13:00,36.6,10.9,30.25,NNE,30,0.0,0.0,34,0.00,,---,0.00,VWS V14.00,2013-02-28 02:13:00,
2013-02-27 20:14:00,36.5,10.8,30.22,NNE,30,0.0,0.0,34,0.00,,---,0.00,VWS V14.00,2013-02-28 02:14:00,
2013-02-27 20:18:00,36.0,10.4,30.22,NNE,30,0.0,0.0,34,0.00,,---,0.00,VWS V14.00,2013-02-28 02:18:00,
2013-02-27 20:19:00,35.9,10.3,30.22,NNE,30,0.0,0.0,34,0.00,,---,0.00,VWS V14.00,2013-02-28 02:19:00,
2013-02-27 20:23:00,35.5,11.2,30.22,NNE,30,0.0,0.0,36,0.00,,---,0.00,VWS V14.00,2013-02-28 02:23:00,
2013-02-27 20:24:00,35.3,10.4,30.22,NNE,30,0.0,0.0,35,0.00,,---,0.00,VWS V14.00,2013-02-28 02:24:00,
2013-02-27 20:28:00,34.9,10.0,30.22,NNE,30,0.0,0.0,35,0.00,,---,0.00,VWS V14.00,2013-02-28 02:28:00,
2013-02-27 20:29:00,34.9,10.7,30.24,NNE,30,0.0,0.0,36,0.00,,---,0.00,VWS V14.00,2013-02-28 02:29:00,
2013-02-27 20:33:00,34.0,9.9,30.24,NNE,30,0.0,0.0,36,0.00,,---,0.00,VWS V14.00,2013-02-28 02:33:00,
2013-02-27 20:34:00,33.8,9.7,30.24,NNE,30,0.0,0.0,36,0.00,,---,0.00,VWS V14.00,2013-02-28 02:34:00,
2013-02-27 20:38:00,32.5,10.3,30.24,NNE,30,0.0,0.0,39,0.00,,---,0.00,VWS V14.00,2013-02-28 02:38:00,
2013-02-27 20:39:00,32.2,10.0,30.24,NNE,30,0.0,0.0,39,0.00,,---,0.00,VWS V14.00,2013-02-28 02:39:00,
2013-02-27 20:43:00,31.3,9.8,30.24,NNE,30,0.0,0.0,40,0.00,,---,0.00,VWS V14.00,2013-02-28 02:43:00,
2013-02-27 20:44:00,31.2,9.1,30.26,NNE,30,0.0,0.0,39,0.00,,---,0.00,VWS V14.00,2013-02-28 02:44:00,
2013-02-27 20:48:00,30.6,9.2,30.26,NNE,30,0.0,0.0,40,0.00,,---,0.00,VWS V14.00,2013-02-28 02:48:00,
2013-02-27 20:49:00,30.4,9.0,30.26,NNE,30,0.0,0.0,40,0.00,,---,0.00,VWS V14.00,2013-02-28 02:49:00,
2013-02-27 20:53:00,29.7,8.9,30.26,NNE,30,0.0,0.0,41,0.00,,---,0.00,VWS V14.00,2013-02-28 02:53:00,
2013-02-27 20:54:00,29.5,9.2,30.26,NNE,30,0.0,0.0,42,0.00,,---,0.00,VWS V14.00,2013-02-28 02:54:00,
2013-02-27 20:55:00,29.5,9.2,30.26,NNE,30,0.0,0.0,42,0.00,,---,0.00,VWS V14.00,2013-02-28 02:55:00,
2013-02-27 20:58:00,29.1,9.4,30.26,NNE,30,0.0,0.0,43,0.00,,---,0.00,VWS V14.00,2013-02-28 02:58:00,
2013-02-27 20:59:00,29.1,8.9,30.27,NNE,30,0.0,0.0,42,0.00,,---,0.00,VWS V14.00,2013-02-28 02:59:00,
2013-02-27 21:00:00,29.0,8.8,30.27,NNE,30,0.0,0.0,42,0.00,,---,0.00,VWS V14.00,2013-02-28 03:00:00,
2013-02-27 21:03:00,28.5,8.9,30.27,NNE,30,0.0,0.0,43,0.00,,---,0.00,VWS V14.00,2013-02-28 03:03:00,
2013-02-27 21:04:00,28.5,8.9,30.27,NNE,30,0.0,0.0,43,0.00,,---,0.00,VWS V14.00,2013-02-28 03:04:00,
2013-02-27 21:05:00,28.4,8.8,30.27,NNE,30,0.0,0.0,43,0.00,,---,0.00,VWS V14.00,2013-02-28 03:05:00,
2013-02-27 21:09:00,27.9,7.8,30.27,NNE,30,0.0,0.0,42,0.00,,---,0.00,VWS V14.00,2013-02-28 03:09:00,
2013-02-27 21:10:00,27.8,8.7,30.27,NNE,30,0.0,0.0,44,0.00,,---,0.00,VWS V14.00,2013-02-28 03:10:00,
2013-02-27 21:14:00,27.2,8.2,30.27,NNE,30,0.0,0.0,44,0.00,,---,0.00,VWS V14.00,2013-02-28 03:14:00,
2013-02-27 21:15:00,27.0,8.0,30.27,NNE,30,0.0,0.0,44,0.00,,---,0.00,VWS V14.00,2013-02-28 03:15:00,
2013-02-27 21:19:00,26.6,8.1,30.27,NNE,30,0.0,0.0,45,0.00,,---,0.00,VWS V14.00,2013-02-28 03:19:00,
2013-02-27 21:20:00,26.6,8.1,30.27,NNE,30,0.0,0.0,45,0.00,,---,0.00,VWS V14.00,2013-02-28 03:20:00,
2013-02-27 21:24:00,26.6,8.6,30.27,NNE,30,0.0,0.0,46,0.00,,---,0.00,VWS V14.00,2013-02-28 03:24:00,
2013-02-27 21:25:00,26.6,8.1,30.27,NNE,30,0.0,0.0,45,0.00,,---,0.00,VWS V14.00,2013-02-28 03:25:00,
2013-02-27 21:29:00,26.3,7.9,30.27,NNE,30,0.0,0.0,45,0.00,,---,0.00,VWS V14.00,2013-02-28 03:29:00,
2013-02-27 21:30:00,26.3,7.9,30.27,NNE,30,0.0,0.0,45,0.00,,---,0.00,VWS V14.00,2013-02-28 03:30:00,
2013-02-27 21:34:00,26.0,8.1,30.27,NNE,30,0.0,0.0,46,0.00,,---,0.00,VWS V14.00,2013-02-28 03:34:00,
2013-02-27 21:35:00,26.0,8.1,30.27,NNE,30,0.0,0.0,46,0.00,,---,0.00,VWS V14.00,2013-02-28 03:35:00,
2013-02-27 21:36:00,26.0,8.1,30.27,NNE,30,0.0,0.0,46,0.00,,---,0.00,VWS V14.00,2013-02-28 03:36:00,
2013-02-27 21:39:00,25.7,7.3,30.27,NNE,30,0.0,0.0,45,0.00,,---,0.00,VWS V14.00,2013-02-28 03:39:00,
2013-02-27 21:40:00,25.7,7.3,30.27,NNE,30,0.0,0.0,45,0.00,,---,0.00,VWS V14.00,2013-02-28 03:40:00,
2013-02-27 21:41:00,25.7,7.3,30.27,NNE,30,0.0,0.0,45,0.00,,---,0.00,VWS V14.00,2013-02-28 03:41:00,
2013-02-27 21:44:00,25.4,7.0,30.30,NNE,30,0.0,0.0,45,0.00,,---,0.00,VWS V14.00,2013-02-28 03:44:00,
2013-02-27 21:45:00,25.4,7.0,30.30,NNE,30,0.0,0.0,45,0.00,,---,0.00,VWS V14.00,2013-02-28 03:45:00,
2013-02-27 21:46:00,25.3,7.4,30.30,NNE,30,0.0,0.0,46,0.00,,---,0.00,VWS V14.00,2013-02-28 03:46:00,
2013-02-27 21:49:00,25.1,7.7,30.30,NNE,30,0.0,0.0,47,0.00,,---,0.00,VWS V14.00,2013-02-28 03:49:00,
2013-02-27 21:50:00,25.0,7.2,30.30,NNE,30,0.0,0.0,46,0.00,,---,0.00,VWS V14.00,2013-02-28 03:50:00,
2013-02-27 21:51:00,25.0,7.2,30.30,NNE,30,0.0,0.0,46,0.00,,---,0.00,VWS V14.00,2013-02-28 03:51:00,
2013-02-27 21:55:00,25.0,8.1,30.30,NNE,30,0.0,0.0,48,0.00,,---,0.00,VWS V14.00,2013-02-28 03:55:00,
2013-02-27 21:56:00,25.0,7.6,30.30,NNE,30,0.0,0.0,47,0.00,,---,0.00,VWS V14.00,2013-02-28 03:56:00,
2013-02-27 22:00:00,25.0,7.2,30.30,NNE,30,0.0,0.0,46,0.00,,---,0.00,VWS V14.00,2013-02-28 04:00:00,
2013-02-27 22:01:00,25.0,7.2,30.30,NNE,30,0.0,0.0,46,0.00,,---,0.00,VWS V14.00,2013-02-28 04:01:00,
2013-02-27 22:05:00,24.7,7.8,30.30,NNE,30,0.0,0.0,48,0.00,,---,0.00,VWS V14.00,2013-02-28 04:05:00,
2013-02-27 22:06:00,24.7,7.8,30.30,NNE,30,0.0,0.0,48,0.00,,---,0.00,VWS V14.00,2013-02-28 04:06:00,
2013-02-27 22:10:00,24.4,7.5,30.30,NNE,30,0.0,0.0,48,0.00,,---,0.00,VWS V14.00,2013-02-28 04:10:00,
2013-02-27 22:11:00,24.4,7.5,30.30,NNE,30,0.0,0.0,48,0.00,,---,0.00,VWS V14.00,2013-02-28 04:11:00,
2013-02-27 22:15:00,24.5,7.6,30.29,NNE,30,0.0,0.0,48,0.00,,---,0.00,VWS V14.00,2013-02-28 04:15:00,
2013-02-27 22:16:00,24.5,7.6,30.29,NNE,30,0.0,0.0,48,0.00,,---,0.00,VWS V14.00,2013-02-28 04:16:00,
2013-02-27 22:20:00,24.4,7.1,30.29,NNE,30,0.0,0.0,47,0.00,,---,0.00,VWS V14.00,2013-02-28 04:20:00,
2013-02-27 22:21:00,24.4,7.1,30.29,NNE,30,0.0,0.0,47,0.00,,---,0.00,VWS V14.00,2013-02-28 04:21:00,
2013-02-27 22:22:00,24.4,7.1,30.29,NNE,30,0.0,0.0,47,0.00,,---,0.00,VWS V14.00,2013-02-28 04:22:00,
2013-02-27 22:25:00,24.2,7.8,30.29,NNE,30,0.0,0.0,49,0.00,,---,0.00,VWS V14.00,2013-02-28 04:25:00,
2013-02-27 22:26:00,24.2,7.3,30.29,NNE,30,0.0,0.0,48,0.00,,---,0.00,VWS V14.00,2013-02-28 04:26:00,
2013-02-27 22:27:00,24.2,7.3,30.29,NNE,30,0.0,0.0,48,0.00,,---,0.00,VWS V14.00,2013-02-28 04:27:00,
2013-02-27 22:30:00,24.1,7.3,30.30,NNE,30,0.0,0.0,48,0.00,,---,0.00,VWS V14.00,2013-02-28 04:30:00,
2013-02-27 22:31:00,24.1,7.3,30.30,NNE,30,0.0,0.0,48,0.00,,---,0.00,VWS V14.00,2013-02-28 04:31:00,
2013-02-27 22:32:00,24.1,7.3,30.30,NNE,30,0.0,0.0,48,0.00,,---,0.00,VWS V14.00,2013-02-28 04:32:00,
2013-02-27 22:35:00,23.6,6.3,30.30,NNE,30,0.0,0.0,47,0.00,,---,0.00,VWS V14.00,2013-02-28 04:35:00,
2013-02-27 22:36:00,23.5,6.2,30.30,NNE,30,0.0,0.0,47,0.00,,---,0.00,VWS V14.00,2013-02-28 04:36:00,
2013-02-27 22:37:00,23.5,6.2,30.30,NNE,30,0.0,0.0,47,0.00,,---,0.00,VWS V14.00,2013-02-28 04:37:00,
2013-02-27 22:40:00,23.3,7.4,30.30,NNE,30,0.0,0.0,50,0.00,,---,0.00,VWS V14.00,2013-02-28 04:40:00,
2013-02-27 22:41:00,23.3,7.4,30.30,NNE,30,0.0,0.0,50,0.00,,---,0.00,VWS V14.00,2013-02-28 04:41:00,
2013-02-27 22:42:00,23.3,7.4,30.30,NNE,30,0.0,0.0,50,0.00,,---,0.00,VWS V14.00,2013-02-28 04:42:00,
2013-02-27 22:43:00,23.5,7.6,30.30,NNE,30,0.0,0.0,50,0.00,,---,0.00,VWS V14.00,2013-02-28 04:43:00,
2013-02-27 22:46:00,23.5,7.6,30.31,NNE,30,0.0,0.0,50,0.00,,---,0.00,VWS V14.00,2013-02-28 04:46:00,
2013-02-27 22:47:00,23.5,7.6,30.31,NNE,30,0.0,0.0,50,0.00,,---,0.00,VWS V14.00,2013-02-28 04:47:00,
2013-02-27 22:48:00,23.5,7.6,30.31,NNE,30,0.0,0.0,50,0.00,,---,0.00,VWS V14.00,2013-02-28 04:48:00,
2013-02-27 22:51:00,23.3,6.5,30.31,NNE,30,0.0,0.0,48,0.00,,---,0.00,VWS V14.00,2013-02-28 04:51:00,
2013-02-27 22:52:00,23.2,6.4,30.31,NNE,30,0.0,0.0,48,0.00,,---,0.00,VWS V14.00,2013-02-28 04:52:00,
2013-02-27 22:53:00,23.2,6.4,30.31,NNE,30,0.0,0.0,48,0.00,,---,0.00,VWS V14.00,2013-02-28 04:53:00,
2013-02-27 22:56:00,23.0,7.1,30.31,NNE,30,0.0,0.0,50,0.00,,---,0.00,VWS V14.00,2013-02-28 04:56:00,
2013-02-27 22:57:00,23.0,7.6,30.31,NNE,30,0.0,0.0,51,0.00,,---,0.00,VWS V14.00,2013-02-28 04:57:00,
2013-02-27 22:58:00,23.0,7.6,30.31,NNE,30,0.0,0.0,51,0.00,,---,0.00,VWS V14.00,2013-02-28 04:58:00,
2013-02-27 23:00:00,23.0,8.0,30.32,NNE,30,0.0,0.0,52,0.00,,---,0.00,VWS V14.00,2013-02-28 05:00:00,
2013-02-27 23:05:00,22.9,6.6,30.32,NNE,30,0.0,0.0,49,0.00,,---,0.00,VWS V14.00,2013-02-28 05:05:00,
2013-02-27 23:10:00,22.5,7.1,30.32,NNE,30,0.0,0.0,51,0.00,,---,0.00,VWS V14.00,2013-02-28 05:10:00,
2013-02-27 23:15:00,22.2,7.3,30.30,NNE,30,0.0,0.0,52,0.00,,---,0.00,VWS V14.00,2013-02-28 05:15:00,
2013-02-27 23:20:00,22.2,6.8,30.30,NNE,30,0.0,0.0,51,0.00,,---,0.00,VWS V14.00,2013-02-28 05:20:00,
2013-02-27 23:21:00,22.4,7.0,30.30,NNE,30,0.0,0.0,51,0.00,,---,0.00,VWS V14.00,2013-02-28 05:21:00,
2013-02-27 23:25:00,21.9,6.6,30.30,NNE,30,0.0,0.0,51,0.00,,---,0.00,VWS V14.00,2013-02-28 05:25:00,
2013-02-27 23:26:00,21.9,6.6,30.30,NNE,30,0.0,0.0,51,0.00,,---,0.00,VWS V14.00,2013-02-28 05:26:00,
2013-02-27 23:30:00,21.4,5.7,30.31,NNE,30,0.0,0.0,50,0.00,,---,0.00,VWS V14.00,2013-02-28 05:30:00,
2013-02-27 23:31:00,21.4,6.9,30.31,NNE,30,0.0,0.0,53,0.00,,---,0.00,VWS V14.00,2013-02-28 05:31:00,
2013-02-27 23:35:00,21.0,6.2,30.31,NNE,30,0.0,0.0,52,0.00,,---,0.00,VWS V14.00,2013-02-28 05:35:00,
2013-02-27 23:36:00,21.0,6.2,30.31,NNE,30,0.0,0.0,52,0.00,,---,0.00,VWS V14.00,2013-02-28 05:36:00,
2013-02-27 23:40:00,20.6,6.6,30.31,NNE,30,0.0,0.0,54,0.00,,---,0.00,VWS V14.00,2013-02-28 05:40:00,
2013-02-27 23:41:00,20.6,6.6,30.31,NNE,30,0.0,0.0,54,0.00,,---,0.00,VWS V14.00,2013-02-28 05:41:00,
2013-02-27 23:45:00,20.6,5.8,30.32,NNE,30,0.0,0.0,52,0.00,,---,0.00,VWS V14.00,2013-02-28 05:45:00,
2013-02-27 23:46:00,20.5,5.3,30.32,NNE,30,0.0,0.0,51,0.00,,---,0.00,VWS V14.00,2013-02-28 05:46:00,
2013-02-27 23:50:00,20.2,6.6,30.32,NNE,30,0.0,0.0,55,0.00,,---,0.00,VWS V14.00,2013-02-28 05:50:00,
2013-02-27 23:51:00,20.0,6.4,30.32,NNE,30,0.0,0.0,55,0.00,,---,0.00,VWS V14.00,2013-02-28 05:51:00,
2013-02-27 23:55:00,19.9,5.9,30.32,NNE,30,0.0,0.0,54,0.00,,---,0.00,VWS V14.00,2013-02-28 05:55:00,
2013-02-27 23:56:00,19.9,5.9,30.32,NNE,30,0.0,0.0,54,0.00,,---,0.00,VWS V14.00,2013-02-28 05:56:00,